Huvudsida
METAR-TAF:

METAR-TAF

Flygplatser :

Helsingborg, Sverige

Ängelholm-Helsingborg Airport

latitud: 56-17-46N, longitud: 012-50-50E, höjd: 21 m

Aktuellt väderrapport

Denna rapport gjordes för 39 minuter sedan, klockan 02:50 UTC
Vind 3 kt från ost
Temperatur -1°C
Fuktighet 100%
Tryck 998 hPa
Sikt: 8000 m

METAR: ESTA 190250Z AUTO 09003KT 8000 OVC022/// M01/M01 Q0998

Tid: 04:29 (03:29 UTC)

Väderprognos

Denna rapport gjordes för 7 timmar och 43 minuter sedan, klockan 19:46 UTC
Prognos gäller från 18 kl. 21 UTC till 18 kl. 23 UTC
Vind 2 kt varierande vindriktning
Sikt 10 km eller mer
Brutna moln på en höjd av 4000 ft
Temporärt
från 18 kl. 21 UTC till 18 kl. 23 UTC
Brutna moln på en höjd av 800 ft

TAF: ESTA 181946Z 1821/1823 VRB02KT 9999 BKN040 TEMPO 1821/1823 BKN008

Aktuella väderrapporter och prognoser från 4000 flygplatser (METAR- och TAF-rapporter).

De tillgängliga stationerna syns som gula och röda prickar på kartan.

För musen över prickarna för att se namnen på stationerna.

Klicka sedan för att få väderrapporter och prognoser.

För att ändra kartan: Klicka på de gröna knapparna med ett svart kors på för att zooma in; den gröna knappen med ett streck på för att zooma ut; eller på de gröna pilarna för angränsande kartor.


METAR-TAF: